Time;durP1;ratioP1;P1;durP2;ratioP2;P2;SDS_P1;SDS_P2;PMS_P1;PMS_P2;Temp;Humidity;BMP_temperature;BMP_pressure;BME280_temperature;BME280_humidity;BME280_pressure;Samples;Min_cycle;Max_cycle;Signal;HPM_P1;HPM_P2
2022/07/04 00:01:24;;;;;;;2.05;1.35;;;;;;;17.18;100.00;99810.78;1708619;81;21014;-55
2022/07/04 00:03:50;;;;;;;1.50;1.40;;;;;;;17.18;100.00;99812.14;1713805;81;21108;-55
2022/07/04 00:06:18;;;;;;;1.75;1.62;;;;;;;17.15;100.00;99816.48;1711944;81;21050;-55
2022/07/04 00:08:44;;;;;;;6.47;1.50;;;;;;;17.12;100.00;99820.77;1713735;81;21630;-55
2022/07/04 00:11:12;;;;;;;3.50;1.20;;;;;;;17.07;100.00;99822.97;1712873;81;21341;-55
2022/07/04 00:13:38;;;;;;;2.60;1.20;;;;;;;17.00;100.00;99821.70;1717770;81;21067;-55
2022/07/04 00:16:06;;;;;;;5.53;1.02;;;;;;;16.92;100.00;99823.62;1714053;80;21042;-56
2022/07/04 00:18:33;;;;;;;5.17;1.37;;;;;;;16.88;100.00;99826.66;1728885;80;21018;-55
2022/07/04 00:21:01;;;;;;;5.08;1.27;;;;;;;16.87;100.00;99823.06;1724196;80;21216;-55
2022/07/04 00:23:28;;;;;;;2.00;1.30;;;;;;;16.89;100.00;99829.76;1724884;80;21496;-55
2022/07/04 00:25:55;;;;;;;1.62;1.20;;;;;;;16.90;100.00;99824.70;1723849;80;21069;-55
2022/07/04 00:28:21;;;;;;;3.47;1.70;;;;;;;16.88;100.00;99830.73;1730857;80;21046;-55
2022/07/04 00:30:48;;;;;;;4.20;1.55;;;;;;;16.84;100.00;99825.16;1731613;80;21186;-55
2022/07/04 00:33:15;;;;;;;5.53;1.45;;;;;;;16.78;100.00;99831.89;1727524;80;21014;-55
2022/07/04 00:35:42;;;;;;;2.40;1.35;;;;;;;16.75;100.00;99833.49;1727199;80;22637;-55
2022/07/04 00:38:09;;;;;;;3.47;1.40;;;;;;;16.72;100.00;99840.50;1723581;80;21081;-55
2022/07/04 00:40:35;;;;;;;3.92;1.62;;;;;;;16.72;100.00;99830.11;1727495;80;21081;-55
2022/07/04 00:43:03;;;;;;;3.47;1.22;;;;;;;16.70;100.00;99835.66;1722514;80;21487;-55
2022/07/04 00:45:31;;;;;;;3.80;1.10;;;;;;;16.69;100.00;99842.06;1726224;80;21163;-55
2022/07/04 00:47:57;;;;;;;4.55;1.50;;;;;;;16.70;100.00;99846.52;1724210;80;21163;-55
2022/07/04 00:50:25;;;;;;;2.55;1.30;;;;;;;16.72;100.00;99844.58;1729409;80;21107;-55
2022/07/04 00:52:53;;;;;;;3.47;1.62;;;;;;;16.74;100.00;99840.39;1726763;80;21093;-55
2022/07/04 00:55:21;;;;;;;5.12;1.60;;;;;;;16.74;100.00;99834.95;1725476;80;21995;-55
2022/07/04 00:57:47;;;;;;;4.00;1.77;;;;;;;16.74;100.00;99843.11;1723319;80;21105;-55
2022/07/04 01:00:15;;;;;;;4.65;1.42;;;;;;;16.74;100.00;99838.55;1727433;80;20962;-55
2022/07/04 01:02:42;;;;;;;2.30;1.40;;;;;;;16.70;100.00;99838.38;1727256;80;21021;-55
2022/07/04 01:05:09;;;;;;;2.00;1.10;;;;;;;16.67;100.00;99837.25;1726938;80;21042;-55
2022/07/04 01:07:36;;;;;;;1.87;1.37;;;;;;;16.65;100.00;99843.28;1728136;80;20903;-55
2022/07/04 01:10:04;;;;;;;2.95;1.27;;;;;;;16.64;100.00;99842.41;1725971;80;20977;-55
2022/07/04 01:12:30;;;;;;;6.97;1.50;;;;;;;16.64;100.00;99843.77;1734293;80;21116;-55
2022/07/04 01:14:57;;;;;;;3.27;2.15;;;;;;;16.59;100.00;99838.23;1729937;80;20990;-55
2022/07/04 01:17:24;;;;;;;3.00;1.90;;;;;;;16.52;100.00;99835.57;1728316;80;20858;-56
2022/07/04 01:19:50;;;;;;;3.70;1.10;;;;;;;16.43;100.00;99827.59;1726569;80;20910;-55
2022/07/04 01:22:17;;;;;;;1.52;1.40;;;;;;;16.38;100.00;99827.06;1729914;80;20935;-55
2022/07/04 01:24:43;;;;;;;1.47;1.27;;;;;;;16.36;100.00;99828.13;1728029;80;21093;-55
2022/07/04 01:27:09;;;;;;;3.22;1.12;;;;;;;16.32;100.00;99825.27;1733855;80;20961;-55
2022/07/04 01:29:36;;;;;;;3.90;1.82;;;;;;;16.28;100.00;99830.03;1729867;80;21405;-55
2022/07/04 01:32:07;;;;;;;6.08;1.80;;;;;;;16.26;100.00;99827.42;1728515;80;20979;-55
2022/07/04 01:34:34;;;;;;;2.12;1.92;;;;;;;16.27;100.00;99831.88;1729671;80;20978;-55
2022/07/04 01:37:01;;;;;;;2.05;1.57;;;;;;;16.32;100.00;99834.78;1729831;80;21077;-55
2022/07/04 01:39:28;;;;;;;1.30;1.20;;;;;;;16.35;100.00;99838.12;1726347;80;20871;-55
2022/07/04 01:41:55;;;;;;;3.80;1.17;;;;;;;16.35;100.00;99840.84;1725817;80;20902;-56
2022/07/04 01:44:21;;;;;;;4.05;1.20;;;;;;;16.34;100.00;99831.44;1730947;80;20941;-55
2022/07/04 01:46:48;;;;;;;2.27;1.10;;;;;;;16.31;100.00;99841.19;1722728;80;21548;-55
2022/07/04 01:49:14;;;;;;;3.02;1.45;;;;;;;16.27;100.00;99837.31;1729578;80;21370;-55
2022/07/04 01:51:50;;;;;;;4.65;1.62;;;;;;;16.29;100.00;99838.57;1723593;80;21057;-55
2022/07/04 01:54:17;;;;;;;3.55;1.45;;;;;;;16.31;100.00;99839.83;1726671;80;20902;-55
2022/07/04 01:56:43;;;;;;;1.80;1.70;;;;;;;16.30;100.00;99842.16;1723681;80;21112;-55
2022/07/04 01:59:10;;;;;;;1.30;1.20;;;;;;;16.25;100.00;99842.46;1730886;80;20971;-54
2022/07/04 02:01:37;;;;;;;2.75;1.40;;;;;;;16.20;100.00;99837.86;1724892;80;21334;-54
2022/07/04 02:04:05;;;;;;;1.47;1.37;;;;;;;16.18;100.00;99834.37;1729002;80;21057;-54
2022/07/04 02:06:32;;;;;;;2.33;1.30;;;;;;;16.17;100.00;99833.98;1732039;80;21574;-54
2022/07/04 02:09:15;;;;;;;1.30;1.20;;;;;;;16.18;100.00;99836.60;1723931;80;21029;-54
2022/07/04 02:14:29;;;;;;;3.10;1.65;;;;;;;16.17;100.00;99834.86;1722936;80;21089;-54
2022/07/04 02:16:56;;;;;;;2.35;1.40;;;;;;;16.20;100.00;99835.14;1726795;80;21658;-54
2022/07/04 02:19:23;;;;;;;3.70;1.50;;;;;;;16.25;100.00;99834.31;1724926;80;21158;-54
2022/07/04 02:21:49;;;;;;;1.65;1.30;;;;;;;16.25;100.00;99832.95;1726791;80;21122;-55
2022/07/04 02:24:16;;;;;;;1.92;1.60;;;;;;;16.25;100.00;99830.24;1723889;80;21069;-54
2022/07/04 02:26:42;;;;;;;2.33;1.55;;;;;;;16.24;100.00;99837.55;1724931;80;21207;-54
2022/07/04 02:29:09;;;;;;;1.65;1.25;;;;;;;16.20;100.00;99837.38;1726972;80;21074;-54
2022/07/04 02:31:36;;;;;;;3.25;1.27;;;;;;;16.17;100.00;99838.93;1727177;80;21021;-54
2022/07/04 02:34:03;;;;;;;2.42;1.70;;;;;;;16.14;100.00;99836.45;1728565;80;21045;-54
2022/07/04 02:36:31;;;;;;;1.90;1.55;;;;;;;16.12;100.00;99834.32;1721144;80;21665;-54
2022/07/04 02:38:57;;;;;;;3.22;1.10;;;;;;;16.10;100.00;99836.27;1722729;80;21920;-54
2022/07/04 02:41:24;;;;;;;2.35;1.00;;;;;;;16.07;100.00;99840.57;1727875;80;21009;-54
2022/07/04 02:43:50;;;;;;;1.98;1.77;;;;;;;16.06;100.00;99840.67;1729846;80;21324;-54
2022/07/04 02:46:16;;;;;;;5.67;1.90;;;;;;;16.07;100.00;99836.98;1720570;80;21239;-54
2022/07/04 02:48:43;;;;;;;2.27;1.80;;;;;;;16.10;100.00;99841.70;1723215;80;21053;-54
2022/07/04 02:51:09;;;;;;;2.75;1.40;;;;;;;16.10;100.00;99844.41;1723154;80;22725;-54
2022/07/04 02:53:36;;;;;;;2.12;1.57;;;;;;;16.11;100.00;99835.78;1728916;80;21132;-54
2022/07/04 02:56:04;;;;;;;6.05;1.55;;;;;;;16.08;100.00;99839.56;1723974;80;21072;-54
2022/07/04 02:58:33;;;;;;;2.92;1.27;;;;;;;16.07;100.00;99843.77;1723731;80;21054;-54
2022/07/04 03:01:00;;;;;;;4.95;1.20;;;;;;;16.05;100.00;99847.08;1726020;80;21053;-54
2022/07/04 03:03:27;;;;;;;4.08;1.50;;;;;;;16.01;100.00;99840.97;1729759;80;22359;-54
2022/07/04 03:05:54;;;;;;;3.52;1.15;;;;;;;15.99;100.00;99836.65;1727355;80;21737;-54
2022/07/04 03:08:20;;;;;;;2.90;0.95;;;;;;;15.99;100.00;99838.84;1721786;80;21045;-54
2022/07/04 03:10:49;;;;;;;2.25;1.35;;;;;;;16.00;100.00;99843.30;1724301;80;21076;-54
2022/07/04 03:13:16;;;;;;;2.52;1.00;;;;;;;16.04;100.00;99848.05;1709630;80;21105;-54
2022/07/04 03:15:42;;;;;;;4.05;1.15;;;;;;;16.08;100.00;99851.78;1726591;80;21135;-54
2022/07/04 03:18:09;;;;;;;2.65;1.20;;;;;;;16.17;100.00;99846.20;1714093;80;21096;-54
2022/07/04 03:20:35;;;;;;;2.75;1.10;;;;;;;16.26;100.00;99846.92;1719697;81;21065;-54
2022/07/04 03:23:03;;;;;;;3.58;1.12;;;;;;;16.37;100.00;99846.17;1709887;81;21564;-54
2022/07/04 03:25:30;;;;;;;3.47;1.47;;;;;;;16.45;100.00;99847.86;1709222;81;21562;-54
2022/07/04 03:27:58;;;;;;;2.17;1.27;;;;;;;16.53;100.00;99838.19;1710972;81;21125;-55
2022/07/04 03:30:26;;;;;;;1.80;1.17;;;;;;;16.60;100.00;99839.97;1714730;81;21078;-54
2022/07/04 03:32:52;;;;;;;3.33;1.55;;;;;;;16.67;100.00;99839.97;1712187;81;21477;-54
2022/07/04 03:35:19;;;;;;;2.08;1.22;;;;;;;16.76;100.00;99845.23;1711310;81;21086;-54
2022/07/04 03:37:45;;;;;;;2.72;1.30;;;;;;;16.84;100.00;99843.67;1720068;81;21050;-54
2022/07/04 03:40:11;;;;;;;4.53;1.20;;;;;;;16.93;100.00;99842.13;1713552;81;21524;-54
2022/07/04 03:42:38;;;;;;;1.62;1.47;;;;;;;17.02;100.00;99837.38;1708192;81;21066;-54
2022/07/04 03:45:07;;;;;;;2.10;1.72;;;;;;;17.09;100.00;99834.62;1708921;81;21084;-54
2022/07/04 03:47:35;;;;;;;1.50;1.30;;;;;;;17.18;100.00;99829.83;1716659;81;21069;-54
2022/07/04 03:50:04;;;;;;;3.08;1.37;;;;;;;17.30;100.00;99829.41;1709247;81;21102;-54
2022/07/04 03:52:30;;;;;;;3.33;1.77;;;;;;;17.40;100.00;99831.34;1713157;81;21542;-54
2022/07/04 03:54:57;;;;;;;2.55;1.57;;;;;;;17.52;100.00;99828.70;1711660;81;21515;-54
2022/07/04 03:57:23;;;;;;;2.22;1.35;;;;;;;17.65;100.00;99833.11;1712717;81;21074;-54
2022/07/04 03:59:50;;;;;;;3.98;1.80;;;;;;;17.77;100.00;99827.23;1716625;81;21078;-54
2022/07/04 04:02:16;;;;;;;5.70;1.70;;;;;;;17.90;100.00;99832.09;1711902;81;21102;-54
2022/07/04 04:07:28;;;;;;;5.17;1.87;;;;;;;18.17;100.00;99826.37;1719151;81;21050;-54
2022/07/04 04:09:55;;;;;;;3.10;1.65;;;;;;;18.32;100.00;99826.52;1711806;81;21565;-54
2022/07/04 04:12:22;;;;;;;4.83;1.65;;;;;;;18.42;100.00;99823.44;1712009;81;21552;-54
2022/07/04 04:14:48;;;;;;;1.42;1.30;;;;;;;18.53;100.00;99828.05;1711191;81;21021;-54
2022/07/04 04:17:15;;;;;;;1.87;1.27;;;;;;;18.63;100.00;99822.77;1714672;81;21130;-54
2022/07/04 04:19:41;;;;;;;5.65;1.65;;;;;;;18.74;100.00;99825.47;1707091;81;21085;-57
2022/07/04 04:22:08;;;;;;;1.82;1.35;;;;;;;18.84;100.00;99819.66;1709456;81;21082;-58
2022/07/04 04:24:34;;;;;;;3.92;1.65;;;;;;;18.95;100.00;99822.88;1714878;81;22775;-56
2022/07/04 04:27:03;;;;;;;1.50;1.27;;;;;;;19.06;100.00;99816.89;1712530;81;21109;-58
2022/07/04 04:31:19;;;;;;;1.40;1.30;;;;;;;19.30;100.00;99814.02;1781233;78;28249;-57
2022/07/04 04:33:46;;;;;;;3.08;1.30;;;;;;;19.39;100.00;99819.22;1739408;80;21483;-58
2022/07/04 04:36:12;;;;;;;3.30;1.25;;;;;;;19.48;100.00;99809.77;1736588;80;21217;-57
2022/07/04 04:38:38;;;;;;;3.37;1.10;;;;;;;19.59;100.00;99812.47;1745761;80;21517;-57
2022/07/04 04:41:05;;;;;;;0.90;0.80;;;;;;;19.71;100.00;99816.53;1740717;80;21446;-58
2022/07/04 04:43:31;;;;;;;1.67;1.00;;;;;;;19.81;100.00;99816.13;1737829;80;21029;-55
2022/07/04 04:45:58;;;;;;;2.75;0.80;;;;;;;19.91;100.00;99815.67;1743815;80;21035;-54
2022/07/04 04:48:24;;;;;;;1.27;0.80;;;;;;;20.01;100.00;99820.72;1737160;80;21255;-56
2022/07/04 04:50:51;;;;;;;3.83;0.80;;;;;;;20.10;100.00;99812.23;1739321;80;21001;-55
2022/07/04 04:53:18;;;;;;;1.20;0.62;;;;;;;20.20;100.00;99816.77;1706414;81;21289;-55
2022/07/04 04:55:44;;;;;;;0.78;0.65;;;;;;;20.30;100.00;99811.37;1707774;81;21095;-55
2022/07/04 04:58:11;;;;;;;0.62;0.60;;;;;;;20.41;100.00;99822.78;1695889;81;21172;-56
2022/07/04 05:00:37;;;;;;;5.72;0.60;;;;;;;20.50;100.00;99819.23;1672294;83;21161;-56
2022/07/04 05:03:04;;;;;;;0.68;0.50;;;;;;;20.62;100.00;99823.60;1676533;83;20959;-56
2022/07/04 05:05:30;;;;;;;1.20;0.50;;;;;;;20.72;100.00;99813.59;1674947;83;21069;-57
2022/07/04 05:07:57;;;;;;;1.90;0.60;;;;;;;20.82;100.00;99812.27;1681276;83;21642;-56
2022/07/04 05:10:23;;;;;;;2.15;0.50;;;;;;;20.92;100.00;99818.15;1675749;83;21137;-55
2022/07/04 05:12:50;;;;;;;2.22;0.80;;;;;;;21.01;100.00;99812.35;1702146;82;21250;-56
2022/07/04 05:15:17;;;;;;;0.68;0.50;;;;;;;21.10;100.00;99819.20;1687208;82;21574;-55
2022/07/04 05:17:44;;;;;;;0.95;0.70;;;;;;;21.18;100.00;99808.95;1684787;82;21104;-55
2022/07/04 05:20:11;;;;;;;0.68;0.50;;;;;;;21.27;100.00;99810.84;1682543;82;21093;-55
2022/07/04 05:22:39;;;;;;;1.67;0.60;;;;;;;21.35;100.00;99803.33;1684146;82;21029;-55
2022/07/04 05:25:07;;;;;;;3.77;0.60;;;;;;;21.42;100.00;99801.25;1686722;82;21147;-55
2022/07/04 05:27:33;;;;;;;0.93;0.60;;;;;;;21.50;100.00;99798.67;1691492;82;21024;-55
2022/07/04 05:30:00;;;;;;;3.62;0.98;;;;;;;21.59;100.00;99808.41;1681739;82;21147;-55
2022/07/04 05:32:26;;;;;;;2.10;0.60;;;;;;;21.64;100.00;99798.73;1670106;83;21072;-55
2022/07/04 05:34:53;;;;;;;1.37;0.53;;;;;;;21.71;100.00;99796.28;1678417;83;21579;-56
2022/07/04 05:37:19;;;;;;;1.20;0.50;;;;;;;21.78;100.00;99803.78;1681570;83;21234;-55
2022/07/04 05:39:46;;;;;;;1.05;0.55;;;;;;;21.86;100.00;99798.98;1678430;83;21093;-56
2022/07/04 05:42:12;;;;;;;0.70;0.60;;;;;;;21.95;100.00;99800.83;1665291;83;21142;-55
2022/07/04 05:44:39;;;;;;;0.72;0.60;;;;;;;22.01;100.00;99805.78;1675973;83;21156;-55
2022/07/04 05:47:05;;;;;;;1.62;0.60;;;;;;;22.10;100.00;99798.56;1655901;84;21032;-56
2022/07/04 05:49:32;;;;;;;0.75;0.60;;;;;;;22.17;100.00;99795.59;1678289;83;21138;-57
2022/07/04 05:51:58;;;;;;;0.88;0.57;;;;;;;22.25;100.00;99794.34;1671216;83;21133;-57
2022/07/04 05:54:24;;;;;;;0.80;0.70;;;;;;;22.32;100.00;99792.73;1678268;83;21191;-57
2022/07/04 05:56:51;;;;;;;2.87;0.50;;;;;;;22.39;100.00;99787.02;1674233;83;21081;-58
2022/07/04 05:59:17;;;;;;;2.22;0.60;;;;;;;22.47;100.00;99795.87;1681281;83;21104;-57
2022/07/04 06:01:45;;;;;;;1.80;0.70;;;;;;;22.54;100.00;99792.92;1677794;83;21487;-57
2022/07/04 06:04:11;;;;;;;1.65;0.78;;;;;;;22.63;100.00;99795.60;1677608;83;21430;-58
2022/07/04 06:06:37;;;;;;;1.17;0.70;;;;;;;22.70;100.00;99791.78;1670157;83;21095;-56
2022/07/04 06:09:04;;;;;;;0.90;0.60;;;;;;;22.77;100.00;99794.30;1680302;83;21049;-56
2022/07/04 06:11:30;;;;;;;2.72;0.60;;;;;;;22.87;100.00;99785.53;1654640;83;21150;-56
2022/07/04 06:13:57;;;;;;;2.25;0.60;;;;;;;22.94;100.00;99780.30;1699454;82;21137;-56
2022/07/04 06:16:23;;;;;;;2.15;0.60;;;;;;;23.02;100.00;99792.75;1688444;82;21721;-55
2022/07/04 06:18:50;;;;;;;1.87;0.60;;;;;;;23.09;100.00;99782.02;1687019;82;22682;-55
2022/07/04 06:21:17;;;;;;;0.50;0.50;;;;;;;23.16;100.00;99783.98;1691383;82;21041;-56
2022/07/04 06:23:43;;;;;;;1.82;0.68;;;;;;;23.24;100.00;99790.09;1690909;82;21057;-55
2022/07/04 06:26:10;;;;;;;0.93;0.60;;;;;;;23.32;100.00;99785.55;1684388;82;22705;-55
2022/07/04 06:28:36;;;;;;;0.70;0.60;;;;;;;23.40;100.00;99778.77;1684694;83;21716;-55
2022/07/04 06:31:03;;;;;;;3.83;0.70;;;;;;;23.47;100.00;99777.67;1679865;82;21149;-53
2022/07/04 06:33:29;;;;;;;1.30;0.80;;;;;;;23.54;100.00;99777.43;1670855;83;21058;-54
2022/07/04 06:35:56;;;;;;;1.42;0.80;;;;;;;23.64;100.00;99778.73;1675316;83;21099;-55
2022/07/04 06:38:28;;;;;;;2.62;0.70;;;;;;;23.73;100.00;99781.38;1674945;83;21254;-55
2022/07/04 06:40:56;;;;;;;4.08;0.60;;;;;;;23.82;100.00;99775.45;1673050;83;21097;-55
2022/07/04 06:43:23;;;;;;;0.82;0.60;;;;;;;23.89;100.00;99777.94;1673771;83;21057;-55
2022/07/04 06:45:49;;;;;;;1.57;0.80;;;;;;;23.97;100.00;99775.27;1674605;83;21073;-55
2022/07/04 06:48:18;;;;;;;1.55;0.93;;;;;;;24.06;100.00;99777.57;1670460;83;21157;-52
2022/07/04 06:50:45;;;;;;;1.05;0.88;;;;;;;24.11;100.00;99769.19;1671985;83;21247;-54
2022/07/04 06:53:11;;;;;;;1.62;0.90;;;;;;;24.18;100.00;99768.02;1670314;83;21110;-57
2022/07/04 06:55:40;;;;;;;2.27;1.10;;;;;;;24.26;100.00;99770.87;1671597;83;21484;-55
2022/07/04 06:58:08;;;;;;;2.70;0.80;;;;;;;24.35;100.00;99776.78;1672608;83;21002;-55
2022/07/04 07:00:35;;;;;;;1.57;0.80;;;;;;;24.43;100.00;99769.09;1667926;83;21469;-56
2022/07/04 07:03:02;;;;;;;1.30;0.80;;;;;;;24.51;100.00;99771.38;1671975;83;21857;-55
2022/07/04 07:05:29;;;;;;;0.88;0.75;;;;;;;24.60;100.00;99763.17;1673942;83;21101;-55
2022/07/04 07:07:55;;;;;;;2.05;0.80;;;;;;;24.68;100.00;99765.47;1669596;83;21129;-55
2022/07/04 07:10:22;;;;;;;0.98;0.80;;;;;;;24.75;100.00;99764.32;1668187;83;21137;-54
2022/07/04 07:12:48;;;;;;;2.58;0.72;;;;;;;24.83;100.00;99758.34;1674389;83;21717;-56
2022/07/04 07:15:16;;;;;;;1.50;0.70;;;;;;;24.92;100.00;99757.90;1660755;84;21030;-55
2022/07/04 07:17:43;;;;;;;3.52;0.68;;;;;;;25.00;100.00;99758.45;1665892;84;20939;-55
2022/07/04 07:20:10;;;;;;;1.12;0.70;;;;;;;25.09;100.00;99761.07;1716099;81;20904;-57
2022/07/04 07:22:37;;;;;;;1.32;0.72;;;;;;;25.19;100.00;99761.77;1711559;81;21038;-58
2022/07/04 07:25:04;;;;;;;2.05;0.70;;;;;;;25.28;100.00;99757.14;1713442;81;23106;-56
2022/07/04 07:27:31;;;;;;;4.03;0.50;;;;;;;25.35;100.00;99755.44;1664219;84;21880;-55
2022/07/04 07:29:57;;;;;;;2.52;0.75;;;;;;;25.44;100.00;99761.83;1673739;83;22399;-59
2022/07/04 07:32:24;;;;;;;2.25;0.50;;;;;;;25.50;100.00;99763.94;1657532;83;21010;-57
2022/07/04 07:34:50;;;;;;;3.25;0.80;;;;;;;25.56;100.00;99759.12;1674146;83;22122;-58
2022/07/04 07:37:17;;;;;;;0.62;0.60;;;;;;;25.61;100.00;99762.25;1674235;83;21228;-56
2022/07/04 07:39:44;;;;;;;5.83;0.90;;;;;;;25.65;100.00;99762.78;1659820;83;21250;-57
2022/07/04 07:42:10;;;;;;;5.22;0.85;;;;;;;25.72;100.00;99757.80;1676468;83;21129;-58
2022/07/04 07:44:37;;;;;;;9.63;1.35;;;;;;;25.79;100.00;99759.34;1677502;83;21105;-58
2022/07/04 07:47:04;;;;;;;4.83;0.75;;;;;;;25.87;100.00;99768.48;1675980;83;21592;-57
2022/07/04 07:49:30;;;;;;;3.30;1.10;;;;;;;25.95;100.00;99764.87;1676880;83;21438;-57
2022/07/04 07:51:58;;;;;;;1.10;0.60;;;;;;;26.02;100.00;99764.55;1676998;83;21076;-57
2022/07/04 07:54:24;;;;;;;2.65;1.12;;;;;;;26.08;100.00;99766.61;1675615;83;21088;-57
2022/07/04 07:56:51;;;;;;;2.15;1.05;;;;;;;26.13;100.00;99761.94;1674238;83;21060;-59
2022/07/04 07:59:17;;;;;;;2.25;0.80;;;;;;;26.18;100.00;99761.78;1673268;83;22250;-57
2022/07/04 08:01:43;;;;;;;3.10;0.60;;;;;;;26.24;100.00;99755.56;1677727;83;21442;-56
2022/07/04 08:06:54;;;;;;;0.90;0.50;;;;;;;26.37;100.00;99755.05;1682177;83;21100;-57
2022/07/04 08:09:21;;;;;;;2.30;0.60;;;;;;;26.45;100.00;99755.58;1672195;83;22532;-57
2022/07/04 08:11:48;;;;;;;1.35;0.70;;;;;;;26.52;100.00;99745.55;1672281;83;21093;-57
2022/07/04 08:14:15;;;;;;;2.20;0.60;;;;;;;26.59;100.00;99749.33;1673955;83;21160;-58
2022/07/04 08:16:43;;;;;;;1.05;0.50;;;;;;;26.65;100.00;99750.85;1673258;83;21669;-57
2022/07/04 08:19:09;;;;;;;1.30;0.53;;;;;;;26.73;100.00;99748.58;1673908;83;21518;-56
2022/07/04 08:21:36;;;;;;;1.20;0.57;;;;;;;26.80;100.00;99749.59;1673479;83;21112;-56
2022/07/04 08:24:04;;;;;;;1.75;0.50;;;;;;;26.88;100.00;99743.20;1678029;83;21143;-57
2022/07/04 08:26:31;;;;;;;0.98;0.50;;;;;;;26.91;100.00;99738.20;1672030;83;21168;-57
2022/07/04 08:28:59;;;;;;;2.15;0.50;;;;;;;26.97;100.00;99741.62;1672290;83;21291;-58
2022/07/04 08:31:28;;;;;;;1.87;0.50;;;;;;;27.00;100.00;99738.51;1688225;83;21081;-58
2022/07/04 08:33:55;;;;;;;2.35;0.50;;;;;;;27.04;100.00;99745.41;1671578;83;21034;-57
2022/07/04 08:36:21;;;;;;;0.50;0.50;;;;;;;27.11;100.00;99742.27;1679327;82;21090;-57
2022/07/04 08:38:48;;;;;;;4.22;0.50;;;;;;;27.16;100.00;99740.33;1677433;83;21195;-57
2022/07/04 08:41:16;;;;;;;2.98;0.55;;;;;;;27.21;100.00;99734.27;1676345;83;21686;-58
2022/07/04 08:43:44;;;;;;;0.95;0.40;;;;;;;27.22;100.00;99740.98;1679032;83;21139;-56
2022/07/04 08:46:11;;;;;;;0.90;0.40;;;;;;;27.26;100.00;99743.73;1675227;83;21560;-58
2022/07/04 08:48:38;;;;;;;0.95;0.42;;;;;;;27.32;100.00;99739.38;1674263;83;21336;-56
2022/07/04 08:51:16;;;;;;;2.02;0.45;;;;;;;27.36;100.00;99739.37;1675571;83;21081;-54
2022/07/04 08:53:54;;;;;;;0.72;0.40;;;;;;;27.40;100.00;99737.94;1673373;83;22017;-56
2022/07/04 08:59:06;;;;;;;2.22;0.50;;;;;;;27.47;100.00;99736.20;1674857;83;21516;-57
2022/07/04 09:01:33;;;;;;;0.50;0.40;;;;;;;27.51;100.00;99732.00;1686250;83;21089;-58
2022/07/04 09:04:01;;;;;;;0.53;0.40;;;;;;;27.57;100.00;99731.82;1673594;83;21085;-56
2022/07/04 09:06:29;;;;;;;0.65;0.40;;;;;;;27.61;100.00;99734.05;1679508;83;21813;-56
2022/07/04 09:08:57;;;;;;;0.40;0.40;;;;;;;27.65;100.00;99738.16;1678842;83;21140;-58
2022/07/04 09:11:23;;;;;;;0.42;0.40;;;;;;;27.70;100.00;99734.85;1685517;83;21081;-57
2022/07/04 09:13:50;;;;;;;2.00;0.90;;;;;;;27.76;100.00;99739.64;1672871;83;21559;-57
2022/07/04 09:16:16;;;;;;;0.68;0.50;;;;;;;27.79;100.00;99739.28;1684926;83;21093;-58
2022/07/04 09:18:43;;;;;;;0.50;0.40;;;;;;;27.81;100.00;99742.21;1668953;83;21151;-58
2022/07/04 09:21:09;;;;;;;3.22;0.50;;;;;;;27.86;100.00;99734.73;1683985;83;21176;-57
2022/07/04 09:23:42;;;;;;;0.40;0.40;;;;;;;27.89;100.00;99733.50;1675667;83;21615;-57
2022/07/04 09:26:17;;;;;;;1.80;0.40;;;;;;;27.90;100.00;99731.94;1677157;83;21052;-56
2022/07/04 09:28:54;;;;;;;0.40;0.40;;;;;;;27.91;100.00;99725.86;1676640;83;21582;-56
2022/07/04 09:31:23;;;;;;;1.57;0.40;;;;;;;27.94;100.00;99729.13;1691828;80;21539;-55
2022/07/04 09:33:55;;;;;;;0.82;0.40;;;;;;;28.01;100.00;99727.84;1719958;80;21105;-56
2022/07/04 09:36:26;;;;;;;0.75;0.40;;;;;;;28.07;100.00;99724.36;1717349;80;21029;-56
2022/07/04 09:39:15;;;;;;;0.33;0.33;;;;;;;28.10;100.00;99728.98;1720892;80;21285;-57
2022/07/04 09:42:02;;;;;;;1.20;0.37;;;;;;;28.15;100.00;99722.38;1717814;80;21129;-56
2022/07/04 09:44:44;;;;;;;0.30;0.30;;;;;;;28.21;100.00;99729.09;1715062;80;22097;-56
2022/07/04 09:47:28;;;;;;;0.40;0.40;;;;;;;28.27;100.00;99724.18;1717069;80;21085;-56
2022/07/04 09:50:11;;;;;;;0.40;0.40;;;;;;;28.33;100.00;99725.36;1722977;80;21531;-56
2022/07/04 09:52:50;;;;;;;0.60;0.30;;;;;;;28.36;100.00;99723.05;1693255;82;21085;-56
2022/07/04 09:55:28;;;;;;;1.87;0.40;;;;;;;28.40;100.00;99719.39;1719557;80;21136;-56
2022/07/04 09:58:00;;;;;;;0.57;0.40;;;;;;;28.43;100.00;99717.61;1717114;80;21215;-56
2022/07/04 10:00:35;;;;;;;0.60;0.33;;;;;;;28.47;100.00;99710.66;1720697;80;21082;-56
2022/07/04 10:03:27;;;;;;;2.17;0.40;;;;;;;28.53;100.00;99712.66;1718462;80;20974;-56
2022/07/04 10:06:11;;;;;;;1.70;0.40;;;;;;;28.55;100.00;99712.81;1717232;80;21049;-56
2022/07/04 10:08:38;;;;;;;;;;;;;;;28.57;100.00;99707.95;1719813;80;21535;-54
2022/07/04 10:11:05;;;;;;;1.75;0.40;;;;;;;28.57;100.00;99710.73;1717548;80;21280;-56
2022/07/04 10:13:32;;;;;;;3.35;0.30;;;;;;;28.58;100.00;99711.59;1718567;80;21466;-54
2022/07/04 10:15:59;;;;;;;2.25;0.40;;;;;;;28.61;100.00;99711.19;1720183;80;21055;-56
2022/07/04 10:18:25;;;;;;;1.42;0.30;;;;;;;28.64;100.00;99703.89;1718605;80;20950;-56
2022/07/04 10:20:54;;;;;;;0.40;0.30;;;;;;;28.68;100.00;99696.91;1719625;80;20923;-57
2022/07/04 10:23:21;;;;;;;1.92;0.40;;;;;;;28.72;100.00;99695.48;1719579;80;21520;-55
2022/07/04 10:25:50;;;;;;;0.40;0.40;;;;;;;28.77;100.00;99697.70;1725367;80;20841;-57
2022/07/04 10:28:17;;;;;;;0.47;0.40;;;;;;;28.78;100.00;99698.03;1728429;80;21320;-56
2022/07/04 10:30:49;;;;;;;0.57;0.42;;;;;;;28.78;100.00;99697.52;1721595;80;20944;-56
2022/07/04 10:33:16;;;;;;;2.05;0.40;;;;;;;28.79;100.00;99696.47;1729504;80;21531;-57
2022/07/04 10:36:01;;;;;;;0.45;0.30;;;;;;;28.82;100.00;99694.70;1721219;80;21200;-56
2022/07/04 10:38:28;;;;;;;0.65;0.40;;;;;;;28.87;100.00;99694.11;1723579;80;21113;-57
2022/07/04 10:40:59;;;;;;;0.60;0.33;;;;;;;28.92;100.00;99690.25;1726557;80;21440;-59
2022/07/04 10:43:37;;;;;;;0.40;0.30;;;;;;;28.96;100.00;99688.80;1702707;80;21116;-57
2022/07/04 10:46:19;;;;;;;1.75;0.30;;;;;;;29.00;100.00;99689.28;1733577;80;20950;-54
2022/07/04 10:49:06;;;;;;;0.40;0.40;;;;;;;29.05;100.00;99682.63;1723731;80;21100;-56
2022/07/04 10:51:56;;;;;;;0.40;0.40;;;;;;;29.09;100.00;99682.05;1725620;80;21129;-54
2022/07/04 10:54:35;;;;;;;1.05;0.40;;;;;;;29.13;100.00;99681.98;1731295;80;21429;-55
2022/07/04 10:57:19;;;;;;;0.75;0.40;;;;;;;29.16;100.00;99678.83;1729370;80;21129;-55
2022/07/04 10:59:59;;;;;;;;;;;;;;;29.18;100.00;99678.61;1739276;80;20997;-56
2022/07/04 11:02:29;;;;;;;2.27;0.40;;;;;;;29.19;100.00;99682.58;1734782;80;21143;-55
2022/07/04 11:05:07;;;;;;;0.40;0.40;;;;;;;29.19;100.00;99686.73;1737801;80;21061;-57
2022/07/04 11:07:43;;;;;;;0.40;0.40;;;;;;;29.20;100.00;99676.52;1725515;80;21562;-56
2022/07/04 11:10:21;;;;;;;1.13;0.40;;;;;;;29.20;100.00;99667.67;1729225;80;21041;-55
2022/07/04 11:13:02;;;;;;;0.40;0.40;;;;;;;29.21;100.00;99668.00;1725829;80;21049;-56
2022/07/04 11:15:37;;;;;;;3.22;0.50;;;;;;;29.23;100.00;99665.05;1721945;80;21256;-57
2022/07/04 11:18:13;;;;;;;0.40;0.35;;;;;;;29.24;100.00;99662.61;1721502;80;21072;-56
2022/07/04 11:20:46;;;;;;;0.55;0.47;;;;;;;29.23;100.00;99667.81;1727239;80;21029;-57
2022/07/04 11:23:17;;;;;;;;;;;;;;;29.24;100.00;99667.63;1727521;80;21590;-56
2022/07/04 11:25:45;;;;;;;0.50;0.40;;;;;;;29.27;100.00;99662.20;1728377;80;21080;-57
2022/07/04 11:28:25;;;;;;;0.40;0.40;;;;;;;29.28;100.00;99659.23;1730590;80;21074;-57
2022/07/04 11:30:52;;;;;;;0.95;0.40;;;;;;;29.24;100.00;99659.84;1724380;80;21045;-56
2022/07/04 11:33:21;;;;;;;2.47;0.40;;;;;;;29.24;100.00;99655.16;1714235;81;21056;-57
2022/07/04 11:36:11;;;;;;;0.35;0.30;;;;;;;29.26;100.00;99653.58;1711589;81;21133;-56
2022/07/04 11:38:59;;;;;;;1.95;0.30;;;;;;;29.26;100.00;99653.58;1711017;81;21737;-57
2022/07/04 11:47:23;;;;;;;1.35;0.40;;;;;;;29.33;100.00;99640.64;1709309;81;21452;-57
2022/07/04 11:49:54;;;;;;;0.47;0.40;;;;;;;29.38;100.00;99635.91;1702632;81;21070;-57
2022/07/04 11:52:26;;;;;;;2.27;0.30;;;;;;;29.39;100.00;99636.23;1708605;81;21098;-56